Lavallette, NJ

5:34 AM EDT on May 22, 2015 (GMT -0400)
Bell Crest | | Change Station
CLOSE
Current Station
Personal Weather Station
Location: Toms River, NJ
Elevation: 26 ft
Nearby Weather Stations

Elev 26 ft 39.98 °N, 74.13 °W | Updated 12 minutes ago

Overcast
Overcast
48.9 °F
Feels Like 49 °F
N
0.0
Wind Variable Wind from North
Gusts 1.0 mph

Today
High -- | Low -- °F
--% Chance of Precip.
Yesterday
High -- | Low -- °F
Precip. -- in
5:35 AM 8:10 PM
Waxing Crescent, 20% visible
Pressure 29.89 in
Visibility 7.0 miles
Clouds Few 6000 ft
Windchill 49 °F
Dew Point 48 °F
Humidity 95%
Rainfall 0.00 in
Snow Depth Not available.
UV 0 out of 12
Pollen 8.60 out of 12
Air Quality Not available.
Flu Activity Local Activity
METAR KMJX 220915Z AUTO 30007KT 7SM FEW060 09/08 A2989 RMK AO1

More Conditions Fewer Conditions

Pressure 29.89 in
Visibility 7.0 miles
Clouds Few 6000 ft
Windchill 49 °F
Dew Point 48 °F
Humidity 95%
Rainfall 0.00 in
Snow Depth Not available.
UV 0 out of 12
Pollen 8.60 out of 12
Air Quality Not available.
Flu Activity Local Activity
METAR KMJX 220915Z AUTO 30007KT 7SM FEW060 09/08 A2989 RMK AO1

More Conditions Fewer Conditions

10-Day Weather Forecast

Almanac

Astronomy

May. 22, 2015 Rise Set
Actual Time
Civil Twilight
Nautical Twilight
Astronomical Twilight
Moon
Length of Visible Light
Length of Day
Tomorrow will be .
, % of the Moon is Illuminated

Today's Extremes

State Highs State Lows

Community

WunderPhotos

Upload Photos

1,823,195 photos uploaded!

WunderBlogs® & News

Nearby

Air Quality

  Air Quality AQ Index Pollutant
Not available.

Snow Depth

Station Depth Elevation

Earthquake Activity

City Distance Mag. Time & Date
Minimum magnitude displayed is 2.5.

Coastal Water Temperatures

Place Temperature

Stations

Nearby Weather Stations

Station Location Temp. Windchill Dew Point Humidity Wind Precip. Elev Updated Type